Aérodrome :
LOGIN :

S'inscrire | Disclaimer

   EN    FR    IT 

 










Légende :    VFR   VFR Marginal   IFR   IFR Intensif   IFR Très Intensif
Visi : 
Plafond : 
>= 8 km
>= 3000ft
5 à 8 km
1000 à 3000 ft
1500m à 5 km
500 à 1000 ft
800 à 1500m
200 à 500 ft
< 800m
< 200 ft
Symboles :   Orages  Brouillard  Fortes neiges  Fortes précipitations  Vent > 20 kt
SIGMETs :   Divers  Orages  Givrage  Turbulence  Onde Orograph.  Cendres Volcan.







- Altitude de l'aérodrome : 297 ft
- Code IATA : UIP
- Voir les cartes d'approche


LFRQ - Quimper Pluguffan

DERNIER METAR :
  • 291100Z AUTO 15010KT 110V190 9999 BKN025 BKN030 OVC035 12/06 Q1012 BECMG 16015G30KT

METARs EXPIRÉS :
  • 291030Z AUTO 16013KT 120V190 9999 BKN026 BKN034 OVC042 12/06 Q1012 BECMG 16015G30KT
  • 291000Z AUTO 15013KT 9999 BKN025 BKN031 OVC039 12/06 Q1012 BECMG 16015G30KT
  • 290930Z AUTO 15012KT 110V200 9999 BKN022 BKN028 BKN033 13/06 Q1013 BECMG 16015G30KT
  • 290900Z AUTO 15013KT 120V180 9999 SCT021 BKN026 BKN036 12/06 Q1013 BECMG 16015G30KT
  • 290830Z AUTO 15012KT 120V180 9999 BKN017 BKN023 OVC028 12/07 Q1013 BECMG 16015G30KT

TAF TAF LFRQ
Valide du 29 à 09h jusqu'au 29 à 18h UTC


290800Z 2909/2918 12010KT 9999 SCT020
BECMG 2909/2911 16015G30KT
Pas de NOTAMs connus pour ce terrain.



MET'MAP, la Météo Aéronautique d'un coup d'oeil ! - Copyright ORBIFLY Décembre 2007 - Disclaimer

ORBIFLY MET'MAP TEAM :

Programmation & Développement : Alexandra Zaïnal
Conception & Développement : Baudouin d'Aumeries
Co-Programmation & Développement : Marc-Olivier Méhu
Soutien technique & logistique : Manuel Goepfert

Contact : metmap@orbifly.com




SOURCES & CREDITS :

   NOAA